createdAt,value
2017-04-21T00:00:10.984Z,59.30
2017-04-21T00:01:09.179Z,59.30
2017-04-21T00:02:07.045Z,59.50
2017-04-21T00:03:04.970Z,59.60
2017-04-21T00:04:02.817Z,59.60
2017-04-21T00:05:00.658Z,59.90
2017-04-21T00:05:58.493Z,60.10
2017-04-21T00:06:56.309Z,60.10
2017-04-21T00:07:54.181Z,60.00
2017-04-21T00:08:51.998Z,59.80
2017-04-21T00:09:49.822Z,59.70
2017-04-21T00:10:47.685Z,59.80
2017-04-21T00:11:45.518Z,59.80
2017-04-21T00:12:43.342Z,59.90
2017-04-21T00:13:41.230Z,60.10
2017-04-21T00:14:39.075Z,60.00
2017-04-21T00:15:37.309Z,60.20
2017-04-21T00:16:35.505Z,60.20
2017-04-21T00:17:33.361Z,60.20
2017-04-21T00:18:31.391Z,60.30
2017-04-21T00:19:29.263Z,60.20
2017-04-21T00:20:27.089Z,60.20
2017-04-21T00:21:24.942Z,60.90
2017-04-21T00:22:22.762Z,60.80
2017-04-21T00:23:20.591Z,60.60
2017-04-21T00:24:18.414Z,60.70
2017-04-21T00:25:16.314Z,60.60
2017-04-21T00:26:14.134Z,60.60
2017-04-21T00:27:11.972Z,60.70
2017-04-21T00:28:09.798Z,61.20
2017-04-21T00:29:07.626Z,61.30
2017-04-21T00:30:05.469Z,61.00
2017-04-21T00:31:03.341Z,61.00
2017-04-21T00:32:01.165Z,61.50
2017-04-21T00:32:59.014Z,61.30
2017-04-21T00:33:57.219Z,61.50
2017-04-21T00:34:55.038Z,61.50
2017-04-21T00:35:52.869Z,61.60
2017-04-21T00:36:50.742Z,61.50
2017-04-21T00:37:48.597Z,61.50
2017-04-21T00:38:46.423Z,61.60
2017-04-21T00:39:44.250Z,61.50
2017-04-21T00:40:42.085Z,62.00
2017-04-21T00:41:39.906Z,62.00
2017-04-21T00:42:37.378Z,62.00
2017-04-21T00:43:35.205Z,62.10
2017-04-21T00:44:33.327Z,62.20
2017-04-21T00:45:31.137Z,62.40
2017-04-21T00:46:28.961Z,62.30
2017-04-21T00:47:26.793Z,62.50
2017-04-21T00:48:24.666Z,62.50
2017-04-21T00:49:22.489Z,62.60
2017-04-21T00:50:20.321Z,62.50
2017-04-21T00:52:22.386Z,62.40
2017-04-21T00:53:20.262Z,62.30
2017-04-21T00:54:17.793Z,62.30
2017-04-21T00:55:15.637Z,62.10
2017-04-21T00:56:13.500Z,61.80
2017-04-21T00:57:11.345Z,61.90
2017-04-21T00:58:09.249Z,62.40
2017-04-21T00:59:07.366Z,62.50
2017-04-21T01:00:05.239Z,62.80
2017-04-21T01:01:03.083Z,62.10
2017-04-21T01:02:00.926Z,61.90
2017-04-21T01:02:58.533Z,61.90
2017-04-21T01:03:56.372Z,61.90
2017-04-21T01:04:54.199Z,61.60
2017-04-21T01:05:52.062Z,61.60
2017-04-21T01:06:49.905Z,61.50
2017-04-21T01:07:47.739Z,61.50
2017-04-21T01:08:45.562Z,61.50
2017-04-21T01:09:43.416Z,61.70
2017-04-21T01:10:41.281Z,62.10
2017-04-21T01:11:39.161Z,62.10
2017-04-21T01:12:36.975Z,62.30
2017-04-21T01:13:34.802Z,62.30
2017-04-21T01:14:33.351Z,62.30
2017-04-21T01:15:31.233Z,62.70
2017-04-21T01:16:29.057Z,62.50
2017-04-21T01:17:27.281Z,62.40
2017-04-21T01:18:25.113Z,62.50
2017-04-21T01:19:22.942Z,62.40
2017-04-21T01:20:20.787Z,62.40
2017-04-21T01:21:18.618Z,62.40
2017-04-21T01:22:16.462Z,62.40
2017-04-21T01:23:14.322Z,62.30
2017-04-21T01:24:12.529Z,62.30
2017-04-21T01:25:10.365Z,62.40
2017-04-21T01:26:08.193Z,62.30
2017-04-21T01:27:06.013Z,62.00
2017-04-21T01:28:03.849Z,62.00
2017-04-21T01:29:01.719Z,62.00
2017-04-21T01:29:59.903Z,61.90
2017-04-21T01:30:57.905Z,62.00
2017-04-21T01:31:55.733Z,62.20
2017-04-21T01:32:53.567Z,62.30
2017-04-21T01:33:51.427Z,62.30
2017-04-21T01:34:49.245Z,61.90
2017-04-21T01:35:47.115Z,61.70
2017-04-21T01:36:45.306Z,61.50
2017-04-21T01:37:43.126Z,61.60
2017-04-21T01:38:40.986Z,61.70
2017-04-21T01:39:38.838Z,61.50
2017-04-21T01:40:36.662Z,61.50
2017-04-21T01:41:34.477Z,61.60
2017-04-21T01:42:32.593Z,61.60
2017-04-21T01:43:30.453Z,61.60
2017-04-21T01:44:28.269Z,61.60
2017-04-21T01:45:26.089Z,61.50
2017-04-21T01:46:23.949Z,61.30
2017-04-21T01:47:21.769Z,61.20
2017-04-21T01:48:19.586Z,61.00
2017-04-21T01:49:17.478Z,60.90
2017-04-21T01:50:15.290Z,61.00
2017-04-21T01:51:13.493Z,61.10
2017-04-21T01:52:11.314Z,61.10
2017-04-21T01:53:09.149Z,61.70
2017-04-21T01:54:06.971Z,61.60
2017-04-21T01:55:04.854Z,61.60
2017-04-21T01:56:02.752Z,61.60
2017-04-21T01:57:00.581Z,61.60
2017-04-21T01:57:58.397Z,61.70
2017-04-21T01:58:56.214Z,61.90
2017-04-21T01:59:54.030Z,62.00
2017-04-21T02:00:51.919Z,62.20
2017-04-21T02:01:49.741Z,62.10
2017-04-21T02:02:47.571Z,62.00
2017-04-21T02:03:45.404Z,62.00
2017-04-21T02:04:43.301Z,62.00
2017-04-21T02:05:41.159Z,62.10
2017-04-21T02:06:38.701Z,62.10
2017-04-21T02:07:36.527Z,62.10
2017-04-21T02:08:34.370Z,62.20
2017-04-21T02:09:32.221Z,62.10
2017-04-21T02:10:30.054Z,62.00
2017-04-21T02:11:27.510Z,62.00
2017-04-21T02:12:25.394Z,61.80
2017-04-21T02:13:23.227Z,61.70
2017-04-21T02:14:21.554Z,61.70
2017-04-21T02:15:19.403Z,61.60
2017-04-21T02:16:17.270Z,61.80
2017-04-21T02:17:15.097Z,61.90
2017-04-21T02:18:12.990Z,61.90
2017-04-21T02:19:10.819Z,61.90
2017-04-21T02:20:08.646Z,62.00
2017-04-21T02:21:06.473Z,61.90
2017-04-21T02:22:04.291Z,61.70
2017-04-21T02:23:02.121Z,61.50
2017-04-21T02:23:59.994Z,61.50
2017-04-21T02:24:57.818Z,61.30
2017-04-21T02:25:55.634Z,61.20
2017-04-21T02:26:53.458Z,61.30
2017-04-21T02:27:51.282Z,61.00
2017-04-21T02:28:49.117Z,60.70
2017-04-21T02:29:47.038Z,60.70
2017-04-21T02:30:44.478Z,60.70
2017-04-21T02:31:42.318Z,60.30
2017-04-21T02:32:40.149Z,60.60
2017-04-21T02:33:37.966Z,61.00
2017-04-21T02:34:35.809Z,61.30
2017-04-21T02:35:33.677Z,61.60
2017-04-21T02:36:31.508Z,61.90
2017-04-21T02:37:29.385Z,62.10
2017-04-21T02:38:27.193Z,62.30
2017-04-21T02:39:25.001Z,62.50
2017-04-21T02:40:22.886Z,62.80
2017-04-21T02:41:20.745Z,62.90
2017-04-21T02:42:18.561Z,63.10
2017-04-21T02:43:15.997Z,63.10
2017-04-21T02:44:13.810Z,63.10
2017-04-21T02:45:11.661Z,63.20
2017-04-21T02:46:09.474Z,63.30
2017-04-21T02:47:07.345Z,63.30
2017-04-21T02:48:05.157Z,63.20
2017-04-21T02:49:02.967Z,63.20
2017-04-21T02:50:00.778Z,63.30
2017-04-21T02:50:58.961Z,63.50
2017-04-21T02:51:56.778Z,63.30
2017-04-21T02:52:54.630Z,63.10
2017-04-21T02:53:52.524Z,62.90
2017-04-21T02:54:50.333Z,63.00
2017-04-21T02:55:48.135Z,63.20
2017-04-21T02:56:45.949Z,63.30
2017-04-21T02:57:43.762Z,63.50
2017-04-21T02:58:41.618Z,63.60
2017-04-21T02:59:39.429Z,63.80
2017-04-21T03:00:37.238Z,63.80
2017-04-21T03:01:35.058Z,63.90
2017-04-21T03:02:32.876Z,64.00
2017-04-21T03:03:30.695Z,64.10
2017-04-21T03:04:28.565Z,64.20
2017-04-21T03:05:26.373Z,64.20
2017-04-21T03:06:24.559Z,64.40
2017-04-21T03:07:22.371Z,64.70
2017-04-21T03:08:20.185Z,64.90
2017-04-21T03:09:17.999Z,64.80
2017-04-21T03:10:15.894Z,65.00
2017-04-21T03:11:13.722Z,65.30
2017-04-21T03:12:11.553Z,65.20
2017-04-21T03:13:09.369Z,65.20
2017-04-21T03:14:07.185Z,65.20
2017-04-21T03:15:04.985Z,65.30
2017-04-21T03:16:02.914Z,65.30
2017-04-21T03:17:00.777Z,65.50
2017-04-21T03:17:58.642Z,65.60
2017-04-21T03:18:56.462Z,65.70
2017-04-21T03:19:54.723Z,65.80
2017-04-21T03:20:52.524Z,65.80
2017-04-21T03:21:50.438Z,66.00
2017-04-21T03:22:48.261Z,66.10
2017-04-21T03:23:46.093Z,66.30
2017-04-21T03:24:43.913Z,66.50
2017-04-21T03:25:41.760Z,66.60
2017-04-21T03:26:39.581Z,66.80
2017-04-21T03:27:37.441Z,67.10
2017-04-21T03:28:35.641Z,67.30
2017-04-21T03:29:33.463Z,67.40
2017-04-21T03:30:31.309Z,67.40
2017-04-21T03:31:29.130Z,67.60
2017-04-21T03:32:27.009Z,67.90
2017-04-21T03:33:24.885Z,68.00
2017-04-21T03:34:22.733Z,68.10
2017-04-21T03:35:20.553Z,68.30
2017-04-21T03:36:18.374Z,68.50
2017-04-21T03:37:16.243Z,68.40
2017-04-21T03:38:14.066Z,68.70
2017-04-21T03:39:11.949Z,68.60
2017-04-21T03:40:09.808Z,68.60
2017-04-21T03:41:07.630Z,68.80
2017-04-21T03:42:05.456Z,68.80
2017-04-21T03:43:03.697Z,68.90
2017-04-21T03:44:01.547Z,69.00
2017-04-21T03:44:59.422Z,69.10
2017-04-21T03:45:57.242Z,69.20
2017-04-21T03:46:54.685Z,69.20
2017-04-21T03:47:52.511Z,69.40
2017-04-21T03:48:50.327Z,69.60
2017-04-21T03:49:48.169Z,69.60
2017-04-21T03:50:46.050Z,69.60
2017-04-21T03:51:43.869Z,69.70
2017-04-21T03:52:41.682Z,69.80
2017-04-21T03:53:39.502Z,69.90
2017-04-21T03:54:37.334Z,69.90
2017-04-21T03:55:35.181Z,69.80
2017-04-21T03:56:33.081Z,69.90
2017-04-21T03:57:30.901Z,69.90
2017-04-21T03:58:28.729Z,70.10
2017-04-21T03:59:26.921Z,70.20
2017-04-21T04:00:24.741Z,70.20
2017-04-21T04:01:22.576Z,70.50
2017-04-21T04:02:20.475Z,70.40
2017-04-21T04:03:18.322Z,70.40
2017-04-21T04:04:16.169Z,70.40
2017-04-21T04:05:14.001Z,70.20
2017-04-21T04:06:11.946Z,70.10
2017-04-21T04:07:09.773Z,70.10
2017-04-21T04:08:07.634Z,70.20
2017-04-21T04:09:05.478Z,70.40
2017-04-21T04:10:03.306Z,70.40
2017-04-21T04:11:01.165Z,70.40
2017-04-21T04:11:58.998Z,70.60
2017-04-21T04:12:57.198Z,70.60
2017-04-21T04:13:55.091Z,70.70
2017-04-21T04:14:52.920Z,70.80
2017-04-21T04:15:50.750Z,70.70
2017-04-21T04:16:48.752Z,70.90
2017-04-21T04:17:46.686Z,70.90
2017-04-21T04:18:44.521Z,70.90
2017-04-21T04:19:42.413Z,70.90
2017-04-21T04:20:40.233Z,71.00
2017-04-21T04:21:38.058Z,71.30
2017-04-21T04:22:35.881Z,71.20
2017-04-21T04:23:33.701Z,71.20
2017-04-21T04:24:31.543Z,71.20
2017-04-21T04:25:29.033Z,71.20
2017-04-21T04:26:27.249Z,71.30
2017-04-21T04:27:25.105Z,71.40
2017-04-21T04:28:22.929Z,71.40
2017-04-21T04:29:20.749Z,71.40
2017-04-21T04:30:18.570Z,71.20
2017-04-21T04:31:16.433Z,71.30
2017-04-21T04:32:14.265Z,71.20
2017-04-21T04:33:12.143Z,71.10
2017-04-21T04:34:09.969Z,71.20
2017-04-21T04:35:07.810Z,71.20
2017-04-21T04:36:05.637Z,71.30
2017-04-21T04:37:03.534Z,71.50
2017-04-21T04:38:00.974Z,71.60
2017-04-21T04:38:58.794Z,71.10
2017-04-21T04:39:56.613Z,70.80
2017-04-21T04:40:54.442Z,70.90
2017-04-21T04:41:52.261Z,71.00
2017-04-21T04:42:50.151Z,70.90
2017-04-21T04:43:47.983Z,70.60
2017-04-21T04:44:45.814Z,70.40
2017-04-21T04:45:43.662Z,70.10
2017-04-21T04:46:41.477Z,70.20
2017-04-21T04:47:39.315Z,70.20
2017-04-21T04:48:37.605Z,70.10
2017-04-21T04:49:35.450Z,70.20
2017-04-21T04:50:33.298Z,70.10
2017-04-21T04:51:31.184Z,69.80
2017-04-21T04:52:29.038Z,69.80
2017-04-21T04:53:26.887Z,69.70
2017-04-21T04:54:24.369Z,69.70
2017-04-21T04:55:22.211Z,69.60
2017-04-21T04:56:20.054Z,69.70
2017-04-21T04:57:17.897Z,70.00
2017-04-21T04:58:16.097Z,70.10
2017-04-21T04:59:13.916Z,69.90
2017-04-21T05:00:11.809Z,69.50
2017-04-21T05:01:09.630Z,68.90
2017-04-21T05:02:07.555Z,68.60
2017-04-21T05:03:05.801Z,68.60
2017-04-21T05:04:03.621Z,68.70
2017-04-21T05:05:01.843Z,68.60
2017-04-21T05:05:59.709Z,69.30
2017-04-21T05:06:57.542Z,68.70
2017-04-21T05:07:55.742Z,68.80
2017-04-21T05:08:53.569Z,68.70
2017-04-21T05:09:51.385Z,68.90
2017-04-21T05:10:49.222Z,69.00
2017-04-21T05:11:47.107Z,69.10
2017-04-21T05:12:45.175Z,69.20
2017-04-21T05:13:43.017Z,69.40
2017-04-21T05:14:40.853Z,69.60
2017-04-21T05:15:38.693Z,69.50
2017-04-21T05:16:36.565Z,69.30
2017-04-21T05:17:34.460Z,69.10
2017-04-21T05:18:32.385Z,68.70
2017-04-21T05:19:30.241Z,68.00
2017-04-21T05:20:28.090Z,68.00
2017-04-21T05:21:25.937Z,68.10
2017-04-21T05:22:23.771Z,67.60
2017-04-21T05:23:21.634Z,67.10
2017-04-21T05:24:19.469Z,67.00
2017-04-21T05:25:17.297Z,67.00
2017-04-21T05:26:15.127Z,67.10
2017-04-21T05:27:12.970Z,67.20
2017-04-21T05:28:10.834Z,67.40
2017-04-21T05:29:08.733Z,67.40
2017-04-21T05:30:06.590Z,67.40
2017-04-21T05:31:04.032Z,67.40
2017-04-21T05:32:01.878Z,67.50
2017-04-21T05:32:59.705Z,67.40
2017-04-21T05:33:57.581Z,67.40
2017-04-21T05:34:55.472Z,67.40
2017-04-21T05:35:53.294Z,67.20
2017-04-21T05:36:51.127Z,67.20
2017-04-21T05:37:48.982Z,67.30
2017-04-21T05:38:46.803Z,67.60
2017-04-21T05:39:44.637Z,68.00
2017-04-21T05:40:42.542Z,68.30
2017-04-21T05:41:40.393Z,68.40
2017-04-21T05:42:38.230Z,68.50
2017-04-21T05:43:36.061Z,68.50
2017-04-21T05:44:33.878Z,68.60
2017-04-21T05:45:31.737Z,68.60
2017-04-21T05:46:29.597Z,68.60
2017-04-21T05:47:27.413Z,68.70
2017-04-21T05:48:25.233Z,68.40
2017-04-21T05:49:23.058Z,68.40
2017-04-21T05:50:20.877Z,68.50
2017-04-21T05:51:18.822Z,68.60
2017-04-21T05:52:16.994Z,68.70
2017-04-21T05:53:14.813Z,68.50
2017-04-21T05:54:12.642Z,68.50
2017-04-21T05:55:10.464Z,68.50
2017-04-21T05:56:08.298Z,68.50
2017-04-21T05:57:06.161Z,68.40
2017-04-21T05:58:04.042Z,68.30
2017-04-21T05:59:01.491Z,68.20
2017-04-21T05:59:59.315Z,67.20
2017-04-21T06:00:57.171Z,67.20
2017-04-21T06:01:55.021Z,67.20
2017-04-21T06:02:52.842Z,67.30
2017-04-21T06:03:50.713Z,67.70
2017-04-21T06:04:48.709Z,67.60
2017-04-21T06:05:46.533Z,67.40
2017-04-21T06:06:44.358Z,66.90
2017-04-21T06:07:42.182Z,66.70
2017-04-21T06:08:40.006Z,67.00
2017-04-21T06:09:37.874Z,67.20
2017-04-21T06:10:35.725Z,67.10
2017-04-21T06:11:33.546Z,66.70
2017-04-21T06:12:31.389Z,66.50
2017-04-21T06:13:29.244Z,66.50
2017-04-21T06:14:27.445Z,66.40
2017-04-21T06:15:25.319Z,66.40
2017-04-21T06:16:23.149Z,66.20
2017-04-21T06:17:21.345Z,66.00
2017-04-21T06:18:19.161Z,65.70
2017-04-21T06:19:16.989Z,65.60
2017-04-21T06:20:14.829Z,65.40
2017-04-21T06:21:12.746Z,65.40
2017-04-21T06:22:10.569Z,65.40
2017-04-21T06:23:08.394Z,65.40
2017-04-21T06:24:06.240Z,65.40
2017-04-21T06:25:04.102Z,65.30
2017-04-21T06:26:01.922Z,65.10
2017-04-21T06:26:59.810Z,64.80
2017-04-21T06:27:57.642Z,65.00
2017-04-21T06:28:55.450Z,65.00
2017-04-21T06:29:53.259Z,65.00
2017-04-21T06:30:51.093Z,65.20
2017-04-21T06:31:48.904Z,65.10
2017-04-21T06:32:46.775Z,65.10
2017-04-21T06:33:44.637Z,64.80
2017-04-21T06:34:42.458Z,64.80
2017-04-21T06:35:40.285Z,64.80
2017-04-21T06:36:38.098Z,64.80
2017-04-21T06:37:35.911Z,64.60
2017-04-21T06:38:33.761Z,64.50
2017-04-21T06:39:31.573Z,64.50
2017-04-21T06:40:29.400Z,64.30
2017-04-21T06:41:27.276Z,64.10
2017-04-21T06:42:25.078Z,64.20
2017-04-21T06:43:22.902Z,64.10
2017-04-21T06:44:20.757Z,63.80
2017-04-21T06:45:18.577Z,63.60
2017-04-21T06:46:16.406Z,63.40
2017-04-21T06:47:14.217Z,63.30
2017-04-21T06:48:12.026Z,63.30
2017-04-21T06:49:09.838Z,63.40
2017-04-21T06:50:07.786Z,63.40
2017-04-21T06:51:05.598Z,63.50
2017-04-21T06:52:03.406Z,63.50
2017-04-21T06:53:01.222Z,63.40
2017-04-21T06:53:59.054Z,63.20
2017-04-21T06:54:56.877Z,62.80
2017-04-21T06:55:54.733Z,62.50
2017-04-21T06:56:52.565Z,62.40
2017-04-21T06:57:50.442Z,62.50
2017-04-21T06:58:48.253Z,62.70
2017-04-21T06:59:46.085Z,63.00
2017-04-21T07:00:43.901Z,63.10
2017-04-21T07:01:41.754Z,62.80
2017-04-21T07:02:54.258Z,62.90
2017-04-21T07:03:52.069Z,62.70
2017-04-21T07:04:49.878Z,62.70
2017-04-21T07:05:47.717Z,62.60
2017-04-21T07:06:45.570Z,62.70
2017-04-21T07:07:43.386Z,62.50
2017-04-21T07:08:41.198Z,62.10
2017-04-21T07:09:39.052Z,62.20
2017-04-21T07:10:36.882Z,62.40
2017-04-21T07:11:34.698Z,62.70
2017-04-21T07:12:33.319Z,63.10
2017-04-21T07:13:31.137Z,63.20
2017-04-21T07:14:28.954Z,63.10
2017-04-21T07:15:26.777Z,63.20
2017-04-21T07:16:24.604Z,63.20
2017-04-21T07:17:22.425Z,62.90
2017-04-21T07:18:20.962Z,63.00
2017-04-21T07:19:18.811Z,62.50
2017-04-21T07:20:16.628Z,62.50
2017-04-21T07:21:14.492Z,62.50
2017-04-21T07:22:12.749Z,62.30
2017-04-21T07:23:11.055Z,61.40
2017-04-21T07:24:08.924Z,61.10
2017-04-21T07:25:06.793Z,61.30
2017-04-21T07:26:04.623Z,61.50
2017-04-21T07:27:02.472Z,61.50
2017-04-21T07:28:00.354Z,61.30
2017-04-21T07:28:58.259Z,61.40
2017-04-21T07:29:56.166Z,61.40
2017-04-21T07:30:53.997Z,61.20
2017-04-21T07:31:51.821Z,61.20
2017-04-21T07:32:49.661Z,61.40
2017-04-21T07:33:47.891Z,61.30
2017-04-21T07:34:45.739Z,61.00
2017-04-21T07:36:41.522Z,60.80
2017-04-21T07:37:39.372Z,60.60
2017-04-21T07:38:37.206Z,60.30
2017-04-21T07:39:35.061Z,59.80
2017-04-21T07:40:32.899Z,59.70
2017-04-21T07:41:30.821Z,59.40
2017-04-21T07:42:29.033Z,58.60
2017-04-21T07:43:26.853Z,58.30
2017-04-21T07:44:24.681Z,58.70
2017-04-21T07:45:22.530Z,58.80
2017-04-21T07:46:20.353Z,59.50
2017-04-21T07:47:18.253Z,59.70
2017-04-21T07:48:16.081Z,59.30
2017-04-21T07:49:14.308Z,58.70
2017-04-21T07:50:12.165Z,58.50
2017-04-21T07:51:09.985Z,58.50
2017-04-21T07:52:07.863Z,58.10
2017-04-21T07:53:05.777Z,57.70
2017-04-21T07:54:03.630Z,57.50
2017-04-21T07:55:01.458Z,57.00
2017-04-21T07:55:59.324Z,56.90
2017-04-21T07:56:57.166Z,57.40
2017-04-21T07:57:54.993Z,57.60
2017-04-21T07:58:52.942Z,57.90
2017-04-21T07:59:57.531Z,57.70
2017-04-21T08:00:48.686Z,57.50
2017-04-21T08:01:46.545Z,57.00
2017-04-21T08:02:44.401Z,56.90
2017-04-21T08:03:41.877Z,56.90
2017-04-21T08:04:39.787Z,56.60
2017-04-21T08:05:37.633Z,56.50
2017-04-21T08:06:35.469Z,56.50
2017-04-21T08:07:33.330Z,56.30
2017-04-21T08:08:31.154Z,56.50
2017-04-21T08:09:29.005Z,56.40
2017-04-21T08:10:27.001Z,56.00
2017-04-21T08:11:24.857Z,55.80
2017-04-21T08:12:23.039Z,55.80
2017-04-21T08:13:20.942Z,55.80
2017-04-21T08:14:18.398Z,55.80
2017-04-21T08:15:16.237Z,55.60
2017-04-21T08:16:14.149Z,55.70
2017-04-21T08:17:11.977Z,55.60
2017-04-21T08:18:09.806Z,55.50
2017-04-21T08:19:07.645Z,55.60
2017-04-21T08:20:05.458Z,55.50
2017-04-21T08:21:03.278Z,54.80
2017-04-21T08:22:01.158Z,55.00
2017-04-21T08:22:58.986Z,54.70
2017-04-21T08:23:56.814Z,54.90
2017-04-21T08:24:54.662Z,54.90
2017-04-21T08:25:52.494Z,55.10
2017-04-21T08:26:50.377Z,55.20
2017-04-21T08:27:48.249Z,55.30
2017-04-21T08:28:46.117Z,54.90
2017-04-21T08:29:43.945Z,55.10
2017-04-21T08:30:41.781Z,55.10
2017-04-21T08:31:39.613Z,55.60
2017-04-21T08:32:37.434Z,55.90
2017-04-21T08:33:35.667Z,55.50
2017-04-21T08:34:33.505Z,55.10
2017-04-21T08:35:31.422Z,54.10
2017-04-21T08:36:29.257Z,54.60
2017-04-21T08:37:27.469Z,54.30
2017-04-21T08:38:25.294Z,54.20
2017-04-21T08:39:23.157Z,54.30
2017-04-21T08:40:20.986Z,53.80
2017-04-21T08:41:18.870Z,52.00
2017-04-21T08:42:16.699Z,51.80
2017-04-21T08:43:14.536Z,51.70
2017-04-21T08:44:12.765Z,51.50
2017-04-21T08:45:10.651Z,51.70
2017-04-21T08:46:08.545Z,51.50
2017-04-21T08:47:06.369Z,51.60
2017-04-21T08:48:04.189Z,50.00
2017-04-21T08:49:02.021Z,49.40
2017-04-21T08:49:59.838Z,49.90
2017-04-21T08:50:57.712Z,49.50
2017-04-21T08:51:55.559Z,49.40
2017-04-21T08:52:53.685Z,49.70
2017-04-21T08:53:51.526Z,49.50
2017-04-21T08:54:49.361Z,49.70
2017-04-21T08:55:46.795Z,49.70
2017-04-21T08:56:44.718Z,50.10
2017-04-21T08:57:42.538Z,50.60
2017-04-21T08:58:40.440Z,50.60
2017-04-21T08:59:38.301Z,50.40
2017-04-21T09:00:36.139Z,50.70
2017-04-21T09:01:33.973Z,50.50
2017-04-21T09:02:31.837Z,50.30
2017-04-21T09:03:29.690Z,50.70
2017-04-21T09:04:27.129Z,50.70
2017-04-21T09:05:24.946Z,50.40
2017-04-21T09:06:22.804Z,50.70
2017-04-21T09:07:20.841Z,50.60
2017-04-21T09:08:18.703Z,50.70
2017-04-21T09:09:16.602Z,50.70
2017-04-21T09:10:14.437Z,50.20
2017-04-21T09:11:12.384Z,50.60
2017-04-21T09:12:10.209Z,49.90
2017-04-21T09:13:08.026Z,50.70
2017-04-21T09:14:06.275Z,50.60
2017-04-21T09:15:04.091Z,50.10
2017-04-21T09:16:02.142Z,50.20
2017-04-21T09:17:00.291Z,50.10
2017-04-21T09:17:58.150Z,50.00
2017-04-21T09:18:56.002Z,49.50
2017-04-21T09:19:53.905Z,49.90
2017-04-21T09:20:51.733Z,49.80
2017-04-21T09:21:49.564Z,49.70
2017-04-21T09:22:47.405Z,48.80
2017-04-21T09:23:45.242Z,49.50
2017-04-21T09:24:43.066Z,49.20
2017-04-21T09:25:41.081Z,49.00
2017-04-21T09:26:38.918Z,49.40
2017-04-21T09:27:36.770Z,49.60
2017-04-21T09:28:34.606Z,49.10
2017-04-21T09:29:32.770Z,48.80
2017-04-21T09:30:30.610Z,49.00
2017-04-21T09:31:28.466Z,49.20
2017-04-21T09:32:26.294Z,49.20
2017-04-21T09:33:24.141Z,50.00
2017-04-21T09:34:33.409Z,50.10
2017-04-21T09:35:34.401Z,50.10
2017-04-21T09:36:17.738Z,50.10
2017-04-21T09:37:15.689Z,50.10
2017-04-21T09:38:13.495Z,50.10
2017-04-21T09:39:11.438Z,49.90
2017-04-21T09:40:09.474Z,50.00
2017-04-21T09:41:07.337Z,50.10
2017-04-21T09:42:11.290Z,49.80
2017-04-21T09:43:03.084Z,49.80
2017-04-21T09:44:01.273Z,49.90
2017-04-21T09:44:59.454Z,49.70
2017-04-21T09:45:57.290Z,49.40
2017-04-21T09:46:55.437Z,49.40
2017-04-21T09:47:53.928Z,49.70
2017-04-21T09:48:52.008Z,49.00
2017-04-21T09:49:49.973Z,48.70
2017-04-21T09:50:54.226Z,48.70
2017-04-21T09:53:43.985Z,49.40
2017-04-21T09:54:14.225Z,49.80
2017-04-21T09:54:46.152Z,49.50
2017-04-21T09:56:55.848Z,49.80
2017-04-21T09:56:55.853Z,49.80
2017-04-21T09:57:18.808Z,49.50
2017-04-21T10:00:53.929Z,48.90
2017-04-21T10:01:32.402Z,49.00
2017-04-21T10:02:58.228Z,48.70
2017-04-21T10:04:21.624Z,49.70
2017-04-21T10:04:31.539Z,48.90
2017-04-21T10:04:49.587Z,48.90
2017-04-21T10:04:53.981Z,48.80
2017-04-21T10:05:24.283Z,49.10
2017-04-21T10:06:25.951Z,49.00
2017-04-21T10:08:06.447Z,49.00
2017-04-21T10:08:06.465Z,48.60
2017-04-21T10:08:21.617Z,49.10
2017-04-21T10:09:16.270Z,49.40
2017-04-21T10:10:14.294Z,49.70
2017-04-21T10:11:12.501Z,50.10
2017-04-21T10:12:10.732Z,50.20
2017-04-21T10:13:08.946Z,50.10
2017-04-21T10:14:07.411Z,49.80
2017-04-21T10:15:05.394Z,49.80
2017-04-21T10:16:03.948Z,48.70
2017-04-21T10:17:02.019Z,48.90
2017-04-21T10:17:59.843Z,49.40
2017-04-21T10:18:58.085Z,49.80
2017-04-21T10:19:56.058Z,49.70
2017-04-21T10:20:53.914Z,49.90
2017-04-21T10:21:52.227Z,50.00
2017-04-21T10:22:50.476Z,50.10
2017-04-21T10:23:48.374Z,50.40
2017-04-21T10:24:45.846Z,50.40
2017-04-21T10:25:43.702Z,51.30
2017-04-21T10:26:41.561Z,49.80
2017-04-21T10:27:39.390Z,49.30
2017-04-21T10:28:37.298Z,49.60
2017-04-21T10:29:35.155Z,50.00
2017-04-21T10:30:33.049Z,49.80
2017-04-21T10:31:30.889Z,49.70
2017-04-21T10:32:28.717Z,49.80
2017-04-21T10:33:26.582Z,49.90
2017-04-21T10:34:24.409Z,50.30
2017-04-21T10:35:22.254Z,50.20
2017-04-21T10:36:20.174Z,50.30
2017-04-21T10:37:18.041Z,49.70
2017-04-21T10:38:15.901Z,48.80
2017-04-21T10:39:13.749Z,48.70
2017-04-21T10:40:11.626Z,48.60
2017-04-21T10:41:09.493Z,49.30
2017-04-21T10:42:07.383Z,49.30
2017-04-21T10:43:05.234Z,49.00
2017-04-21T10:44:03.174Z,48.80
2017-04-21T10:45:01.081Z,48.40
2017-04-21T10:45:58.937Z,48.20
2017-04-21T10:46:56.782Z,48.10
2017-04-21T10:47:54.685Z,47.70
2017-04-21T10:48:52.534Z,47.60
2017-04-21T10:49:50.402Z,47.10
2017-04-21T10:50:48.277Z,47.10
2017-04-21T10:51:46.209Z,47.20
2017-04-21T10:52:43.678Z,47.20
2017-04-21T10:53:42.478Z,46.60
2017-04-21T10:54:40.364Z,47.10
2017-04-21T10:55:38.242Z,47.00
2017-04-21T10:56:36.110Z,46.70
2017-04-21T10:57:34.062Z,46.40
2017-04-21T10:58:32.047Z,46.90
2017-04-21T10:59:29.954Z,47.20
2017-04-21T11:00:27.793Z,47.40
2017-04-21T11:01:25.837Z,47.40
2017-04-21T11:02:23.685Z,47.80
2017-04-21T11:03:21.558Z,48.00
2017-04-21T11:04:19.409Z,48.10
2017-04-21T11:05:17.282Z,47.90
2017-04-21T11:06:15.137Z,47.10
2017-04-21T11:07:12.999Z,47.00
2017-04-21T11:08:10.831Z,47.70
2017-04-21T11:09:08.662Z,47.90
2017-04-21T11:10:06.509Z,47.50
2017-04-21T11:11:04.430Z,46.90
2017-04-21T11:12:02.369Z,47.00
2017-04-21T11:13:00.201Z,47.60
2017-04-21T11:13:58.141Z,48.00
2017-04-21T11:14:56.024Z,48.70
2017-04-21T11:15:53.966Z,49.30
2017-04-21T11:16:51.873Z,49.10
2017-04-21T11:17:49.766Z,48.70
2017-04-21T11:18:47.611Z,48.50
2017-04-21T11:19:45.461Z,48.10
2017-04-21T11:20:42.934Z,48.10
2017-04-21T11:21:40.809Z,48.70
2017-04-21T11:22:38.713Z,48.60
2017-04-21T11:23:36.566Z,48.70
2017-04-21T11:24:34.430Z,48.70
2017-04-21T11:25:32.285Z,48.70
2017-04-21T11:26:30.140Z,48.60
2017-04-21T11:27:27.973Z,48.60
2017-04-21T11:28:26.127Z,48.50
2017-04-21T11:29:23.995Z,48.20
2017-04-21T11:30:21.847Z,47.30
2017-04-21T11:31:20.087Z,47.40
2017-04-21T11:32:17.962Z,47.60
2017-04-21T11:33:15.960Z,47.20
2017-04-21T11:34:14.174Z,47.20
2017-04-21T11:35:12.311Z,47.10
2017-04-21T11:36:10.151Z,47.20
2017-04-21T11:37:07.989Z,47.20
2017-04-21T11:38:05.839Z,47.50
2017-04-21T11:39:04.593Z,48.00
2017-04-21T11:40:02.450Z,47.80
2017-04-21T11:41:00.810Z,47.90
2017-04-21T11:41:58.272Z,47.90
2017-04-21T11:42:56.154Z,47.80
2017-04-21T11:43:54.270Z,47.70
2017-04-21T11:44:52.433Z,47.70
2017-04-21T11:45:50.441Z,47.50
2017-04-21T11:46:48.977Z,47.10
2017-04-21T11:47:47.348Z,46.80
2017-04-21T11:48:46.515Z,47.40
2017-04-21T11:49:44.343Z,47.10
2017-04-21T11:50:42.687Z,47.70
2017-04-21T11:51:41.992Z,47.70
2017-04-21T11:52:40.622Z,46.70
2017-04-21T11:53:38.521Z,47.00
2017-04-21T11:54:36.743Z,47.20
2017-04-21T11:55:34.633Z,47.70
2017-04-21T11:56:32.441Z,48.10
2017-04-21T11:57:31.027Z,47.90
2017-04-21T11:58:30.170Z,48.20
2017-04-21T11:59:28.030Z,48.50
2017-04-21T12:00:25.850Z,48.10
2017-04-21T12:01:23.749Z,47.30
2017-04-21T12:02:21.606Z,48.00
2017-04-21T12:03:20.025Z,48.90
2017-04-21T12:04:17.838Z,49.40
2017-04-21T12:05:15.913Z,50.10
2017-04-21T12:06:13.768Z,50.40
2017-04-21T12:07:11.618Z,52.10
2017-04-21T12:08:09.886Z,51.40
2017-04-21T12:09:07.413Z,51.40
2017-04-21T12:10:05.390Z,50.50
2017-04-21T12:11:03.285Z,50.50
2017-04-21T12:12:01.656Z,50.20
2017-04-21T12:13:00.425Z,50.50
2017-04-21T12:13:59.410Z,50.40
2017-04-21T12:14:57.274Z,50.30
2017-04-21T12:15:55.148Z,50.40
2017-04-21T12:16:53.482Z,50.30
2017-04-21T12:17:51.570Z,50.00
2017-04-21T12:18:49.883Z,50.00
2017-04-21T12:19:48.095Z,50.00
2017-04-21T12:20:45.997Z,50.10
2017-04-21T12:21:43.821Z,50.20
2017-04-21T12:22:41.681Z,50.00
2017-04-21T12:23:40.023Z,50.20
2017-04-21T12:24:37.564Z,50.20
2017-04-21T12:25:35.901Z,50.50
2017-04-21T12:26:33.972Z,50.50
2017-04-21T12:27:31.890Z,50.70